Cleveland, Texas
Current Conditions -  °F | °C
As of 3:15 PM on Monday 24 Nov 2014 (Local Time) from K6R3 Reporting Station
Clear Clear  
Wind Chill: 60°   Ceiling: Unl
Heat Index: 60°   Visibility: 7mi
Dew Point: 38°   Wind: 3mph
Humidity: 43%   Direction: 360°N
Pressure: 30.04"   Gusts: NA
Location:  30.34°N, 95.09°W
Report Text: K6R3 242115Z AUTO 36003KT 7SM CLR 16/03 A3004 RMK AO2 T01580033
Loading
Personal Weather Stations






























Interactive Weather Map New forecast layout! Learn more

10-Day Weather Forecast

Advertisements
Track Severe Weather on mobile